Time;durP1;ratioP1;P1;durP2;ratioP2;P2;SDS_P1;SDS_P2;PMS_P1;PMS_P2;Temp;Humidity;BMP_temperature;BMP_pressure;BME280_temperature;BME280_humidity;BME280_pressure;Samples;Min_cycle;Max_cycle;Signal;HPM_P1;HPM_P2
2021/01/26 00:01:03;;;;;;;18.60;11.77;;;-0.60;99.90;;;;;;5091799;28;20067;-62
2021/01/26 00:03:28;;;;;;;14.82;9.57;;;-0.50;99.90;;;;;;5091718;28;20032;-62
2021/01/26 00:05:54;;;;;;;13.23;9.02;;;-0.50;99.90;;;;;;5092925;28;20028;-62
2021/01/26 00:08:21;;;;;;;17.63;9.82;;;-0.40;99.90;;;;;;5092313;28;20044;-61
2021/01/26 00:10:48;;;;;;;13.20;8.98;;;-0.40;99.90;;;;;;5092948;28;20028;-62
2021/01/26 00:13:15;;;;;;;13.05;8.80;;;-0.30;99.90;;;;;;5092509;28;20020;-64
2021/01/26 00:15:40;;;;;;;14.93;9.10;;;-0.40;99.90;;;;;;5092158;28;20032;-62
2021/01/26 00:18:07;;;;;;;18.13;10.00;;;-0.40;99.90;;;;;;5092535;28;20034;-62
2021/01/26 00:20:33;;;;;;;19.58;11.38;;;-0.40;99.90;;;;;;5090858;28;20300;-62
2021/01/26 00:22:59;;;;;;;18.73;12.05;;;-0.40;99.90;;;;;;5091478;28;20457;-64
2021/01/26 00:25:37;;;;;;;19.98;12.00;;;-0.50;99.90;;;;;;5091725;28;20137;-62
2021/01/26 00:28:05;;;;;;;16.65;10.02;;;-0.50;99.90;;;;;;5092754;28;20527;-63
2021/01/26 00:30:32;;;;;;;18.73;10.93;;;-0.50;99.90;;;;;;5091671;28;20456;-62
2021/01/26 00:33:00;;;;;;;16.77;10.52;;;-0.60;99.90;;;;;;5092223;28;20548;-63
2021/01/26 00:35:29;;;;;;;15.90;10.05;;;-0.60;99.90;;;;;;5091839;28;20078;-62
2021/01/26 00:37:55;;;;;;;16.77;10.52;;;-0.60;99.90;;;;;;5092536;28;20024;-63
2021/01/26 00:40:20;;;;;;;18.30;11.05;;;-0.70;99.90;;;;;;5091859;28;20020;-62
2021/01/26 00:42:46;;;;;;;19.83;10.98;;;-0.70;99.90;;;;;;5092566;28;20035;-62
2021/01/26 00:45:13;;;;;;;16.02;10.43;;;-0.70;99.90;;;;;;5092590;28;20077;-65
2021/01/26 00:47:39;;;;;;;12.10;8.65;;;-0.70;99.90;;;;;;5092628;28;20044;-62
2021/01/26 00:50:06;;;;;;;13.50;8.57;;;-0.60;99.90;;;;;;5089607;28;20028;-63
2021/01/26 00:52:32;;;;;;;13.80;9.27;;;-0.60;99.90;;;;;;5090359;28;20024;-62
2021/01/26 00:54:57;;;;;;;17.92;10.40;;;-0.60;99.90;;;;;;5091145;28;20036;-63
2021/01/26 00:57:23;;;;;;;16.08;9.63;;;-0.60;99.90;;;;;;5090536;28;20027;-62
2021/01/26 00:59:49;;;;;;;14.38;9.20;;;-0.60;99.90;;;;;;5090962;28;20357;-63
2021/01/26 01:02:16;;;;;;;15.85;10.25;;;-0.60;99.90;;;;;;5089411;28;20062;-63
2021/01/26 01:04:43;;;;;;;14.40;10.23;;;-0.70;99.90;;;;;;5091135;28;20032;-64
2021/01/26 01:07:09;;;;;;;14.63;9.32;;;-0.70;99.90;;;;;;5090227;28;20038;-63
2021/01/26 01:09:35;;;;;;;14.63;9.18;;;-0.70;99.90;;;;;;5090432;28;20020;-63
2021/01/26 01:12:01;;;;;;;16.10;10.80;;;-0.80;99.90;;;;;;5091190;28;20032;-63
2021/01/26 01:14:26;;;;;;;16.42;10.23;;;-0.80;99.90;;;;;;5089585;28;20032;-63
2021/01/26 01:16:53;;;;;;;13.82;9.25;;;-0.90;99.90;;;;;;5089986;28;20377;-63
2021/01/26 01:19:19;;;;;;;15.23;9.15;;;-0.90;99.90;;;;;;5090220;28;20024;-63
2021/01/26 01:21:45;;;;;;;14.27;9.10;;;-0.90;99.90;;;;;;5088050;28;20028;-63
2021/01/26 01:24:10;;;;;;;15.07;8.48;;;-0.90;99.90;;;;;;5091890;28;20067;-63
2021/01/26 01:26:36;;;;;;;11.68;7.00;;;-0.90;99.90;;;;;;5089833;28;20094;-63
2021/01/26 01:29:02;;;;;;;10.55;7.03;;;-0.80;99.90;;;;;;5090145;28;20024;-62
2021/01/26 01:31:28;;;;;;;12.13;7.75;;;-0.70;99.90;;;;;;5089799;28;20031;-62
2021/01/26 01:33:54;;;;;;;10.52;6.75;;;-0.70;99.90;;;;;;5089215;28;20044;-63
2021/01/26 01:36:20;;;;;;;11.05;6.97;;;-0.60;99.90;;;;;;5090644;28;20024;-63
2021/01/26 01:38:45;;;;;;;12.95;6.93;;;-0.50;99.90;;;;;;5075660;28;20028;-63
2021/01/26 01:41:11;;;;;;;11.65;6.90;;;-0.50;99.90;;;;;;5079831;28;20029;-64
2021/01/26 01:43:37;;;;;;;9.10;6.72;;;-0.60;99.90;;;;;;5086525;28;20052;-62
2021/01/26 01:46:13;;;;;;;10.32;6.70;;;-0.60;99.90;;;;;;5089979;28;20035;-61
2021/01/26 01:48:40;;;;;;;11.15;7.13;;;-0.50;99.90;;;;;;5083862;28;20114;-62
2021/01/26 01:51:21;;;;;;;9.98;6.70;;;-0.50;99.90;;;;;;5088969;28;20036;-63
2021/01/26 01:54:00;;;;;;;14.23;7.38;;;-0.60;99.90;;;;;;5091209;28;20032;-62
2021/01/26 01:56:25;;;;;;;10.00;6.72;;;-0.60;99.90;;;;;;5087862;28;20078;-62
2021/01/26 01:58:57;;;;;;;10.15;7.20;;;-0.60;99.90;;;;;;5089942;28;20032;-64
2021/01/26 02:01:26;;;;;;;9.60;6.63;;;-0.60;99.90;;;;;;5090630;28;20024;-62
2021/01/26 02:03:57;;;;;;;11.30;7.82;;;-0.60;99.90;;;;;;5090995;28;20043;-63
2021/01/26 02:06:25;;;;;;;10.95;7.03;;;-0.60;99.90;;;;;;5090935;28;20482;-62
2021/01/26 02:09:13;;;;;;;12.27;7.13;;;-0.60;99.90;;;;;;5089838;28;20032;-61
2021/01/26 02:11:39;;;;;;;11.05;6.97;;;-0.60;99.90;;;;;;5090625;28;20036;-62
2021/01/26 02:14:05;;;;;;;12.73;7.30;;;-0.50;99.90;;;;;;5090440;28;20032;-62
2021/01/26 02:16:31;;;;;;;11.27;7.13;;;-0.50;99.90;;;;;;5090550;28;20117;-61
2021/01/26 02:18:59;;;;;;;12.77;7.80;;;-0.50;99.90;;;;;;5089594;28;20042;-61
2021/01/26 02:22:01;;;;;;;13.27;7.55;;;-0.40;99.90;;;;;;5090263;28;20032;-61
2021/01/26 02:25:11;;;;;;;13.05;6.90;;;-0.50;99.90;;;;;;5088935;28;20032;-62
2021/01/26 02:27:49;;;;;;;12.80;7.00;;;-0.50;99.90;;;;;;5090250;28;20035;-61
2021/01/26 02:30:31;;;;;;;12.27;7.70;;;-0.50;99.90;;;;;;5085994;28;20028;-63
2021/01/26 02:33:21;;;;;;;13.70;7.90;;;-0.60;99.90;;;;;;5082931;28;20131;-62
2021/01/26 02:36:01;;;;;;;13.40;7.20;;;-0.60;99.90;;;;;;5090702;28;20067;-62
2021/01/26 02:38:54;;;;;;;13.68;7.22;;;-0.60;99.90;;;;;;5084304;28;20046;-61
2021/01/26 02:41:35;;;;;;;14.88;8.27;;;-0.60;99.90;;;;;;5089701;28;20426;-61
2021/01/26 02:44:35;;;;;;;12.20;7.18;;;-0.70;99.90;;;;;;5090603;28;20043;-62
2021/01/26 02:47:06;;;;;;;13.07;7.68;;;-0.70;99.90;;;;;;5089658;28;20024;-62
2021/01/26 02:49:51;;;;;;;21.85;8.65;;;-0.70;99.90;;;;;;5093997;28;20061;-62
2021/01/26 02:52:26;;;;;;;13.07;7.80;;;-0.60;99.90;;;;;;5090751;28;20096;-64
2021/01/26 02:55:22;;;;;;;13.35;7.35;;;-0.60;99.90;;;;;;5087475;28;20032;-63
2021/01/26 02:58:08;;;;;;;12.05;6.90;;;-0.60;99.90;;;;;;5091494;28;20028;-62
2021/01/26 03:00:37;;;;;;;12.65;7.38;;;-0.50;99.90;;;;;;5093569;28;20016;-61
2021/01/26 03:03:12;;;;;;;13.52;7.15;;;-0.50;99.90;;;;;;5094484;28;20445;-62
2021/01/26 03:05:47;;;;;;;12.00;7.70;;;-0.40;99.90;;;;;;5094058;28;20081;-62
2021/01/26 03:08:22;;;;;;;12.57;7.88;;;-0.30;99.90;;;;;;5087332;28;20391;-64
2021/01/26 03:10:58;;;;;;;14.93;7.53;;;-0.30;99.90;;;;;;5094415;28;20024;-61
2021/01/26 03:13:28;;;;;;;15.80;7.88;;;-0.20;99.90;;;;;;5094070;28;20020;-61
2021/01/26 03:16:03;;;;;;;14.10;7.55;;;-0.20;99.90;;;;;;5093945;28;20032;-62
2021/01/26 03:18:38;;;;;;;12.98;7.03;;;-0.20;99.90;;;;;;5093532;28;20538;-61
2021/01/26 03:21:05;;;;;;;13.40;6.78;;;-0.20;99.90;;;;;;5094054;28;20030;-62
2021/01/26 03:23:38;;;;;;;13.77;7.63;;;-0.30;99.90;;;;;;5092247;28;20031;-61
2021/01/26 03:26:08;;;;;;;13.07;7.82;;;-0.30;99.90;;;;;;5094190;28;20028;-61
2021/01/26 03:28:35;;;;;;;;;;;-0.30;99.90;;;;;;5093732;28;20028;-61
2021/01/26 03:31:01;;;;;;;17.00;8.07;;;-0.30;99.90;;;;;;5093726;28;19915;-61
2021/01/26 03:33:33;;;;;;;14.02;8.63;;;-0.30;99.90;;;;;;5092245;28;20036;-61
2021/01/26 03:35:59;;;;;;;11.68;7.43;;;-0.30;99.90;;;;;;5093155;28;20031;-62
2021/01/26 03:38:28;;;;;;;13.63;7.03;;;-0.40;99.90;;;;;;5092490;28;20465;-61
2021/01/26 03:40:56;;;;;;;12.48;6.78;;;-0.30;99.90;;;;;;5091634;28;20055;-63
2021/01/26 03:43:23;;;;;;;17.33;7.50;;;-0.30;99.90;;;;;;5092686;28;20579;-62
2021/01/26 03:46:00;;;;;;;14.63;7.47;;;-0.30;99.90;;;;;;5093035;28;20040;-62
2021/01/26 03:48:49;;;;;;;11.00;7.13;;;-0.30;99.90;;;;;;5092502;28;20048;-62
2021/01/26 03:51:39;;;;;;;13.45;7.47;;;-0.20;99.90;;;;;;5084548;28;20046;-63
2021/01/26 03:54:34;;;;;;;13.45;7.70;;;-0.30;99.90;;;;;;5092575;28;20544;-62
2021/01/26 03:57:12;;;;;;;13.35;8.13;;;-0.30;99.90;;;;;;5086934;28;20036;-63
2021/01/26 04:00:09;;;;;;;11.50;7.03;;;-0.30;99.90;;;;;;5087780;28;20036;-62
2021/01/26 04:02:50;;;;;;;17.02;7.00;;;-0.30;99.90;;;;;;5061838;28;20038;-61
2021/01/26 04:05:29;;;;;;;11.75;7.20;;;-0.20;99.90;;;;;;5092693;28;20070;-64
2021/01/26 04:08:06;;;;;;;13.77;6.90;;;-0.20;99.90;;;;;;5090531;28;20127;-61
2021/01/26 04:10:36;;;;;;;10.70;6.78;;;-0.20;99.90;;;;;;5092231;28;20048;-61
2021/01/26 04:13:07;;;;;;;10.93;6.75;;;-0.20;99.90;;;;;;5093425;28;20020;-61
2021/01/26 04:15:48;;;;;;;12.60;7.53;;;-0.20;99.90;;;;;;5092406;28;20496;-61
2021/01/26 04:18:16;;;;;;;10.38;6.78;;;-0.20;99.90;;;;;;5086542;28;20036;-63
2021/01/26 04:20:42;;;;;;;9.52;6.50;;;-0.20;99.90;;;;;;5092934;28;20054;-61
2021/01/26 04:23:08;;;;;;;12.38;6.90;;;-0.20;99.90;;;;;;5093106;28;20024;-61
2021/01/26 04:25:39;;;;;;;13.27;6.93;;;-0.20;99.90;;;;;;5091876;28;20472;-62
2021/01/26 04:28:16;;;;;;;10.85;6.90;;;-0.20;99.90;;;;;;5091291;28;20422;-62
2021/01/26 04:30:42;;;;;;;10.73;6.57;;;-0.20;99.60;;;;;;5093232;28;20030;-61
2021/01/26 04:33:14;;;;;;;12.52;7.15;;;-0.10;99.50;;;;;;5092672;28;20532;-63
2021/01/26 04:35:40;;;;;;;14.70;6.65;;;-0.10;99.90;;;;;;5092547;28;20032;-61
2021/01/26 04:38:07;;;;;;;11.52;6.57;;;-0.10;99.90;;;;;;5092838;28;20035;-61
2021/01/26 04:40:33;;;;;;;10.40;6.25;;;-0.10;99.70;;;;;;5091296;28;20020;-62
2021/01/26 04:42:59;;;;;;;12.75;6.13;;;0.00;99.60;;;;;;5092534;28;20040;-62
2021/01/26 04:45:51;;;;;;;10.70;6.40;;;0.00;99.80;;;;;;5090713;28;20027;-61
2021/01/26 04:48:31;;;;;;;11.80;6.53;;;0.00;99.60;;;;;;5086878;28;20032;-63
2021/01/26 04:51:07;;;;;;;12.73;5.55;;;0.00;99.80;;;;;;5090658;28;20052;-62
2021/01/26 04:53:57;;;;;;;9.25;5.47;;;0.10;99.40;;;;;;5091843;28;20063;-61
2021/01/26 04:56:40;;;;;;;11.10;5.65;;;0.10;99.10;;;;;;5076677;28;20042;-61
2021/01/26 04:59:28;;;;;;;12.70;6.28;;;0.10;98.80;;;;;;5090748;28;20039;-62
2021/01/26 05:02:30;;;;;;;8.65;5.07;;;0.20;99.10;;;;;;5091970;28;20512;-62
2021/01/26 05:05:15;;;;;;;9.18;5.43;;;0.30;98.70;;;;;;5091941;28;20439;-62
2021/01/26 05:07:47;;;;;;;9.48;4.95;;;0.30;98.20;;;;;;5091444;28;20027;-62
2021/01/26 05:10:31;;;;;;;9.77;4.75;;;0.30;97.30;;;;;;5089513;28;20786;-61
2021/01/26 05:13:11;;;;;;;10.30;4.80;;;0.40;97.70;;;;;;5090994;28;20060;-62
2021/01/26 05:15:40;;;;;;;9.73;5.00;;;0.30;97.90;;;;;;5090848;28;20602;-61
2021/01/26 05:18:20;;;;;;;9.48;4.32;;;0.40;97.30;;;;;;5092211;28;20107;-61
2021/01/26 05:20:54;;;;;;;11.18;3.63;;;0.40;97.80;;;;;;5083819;28;20028;-61
2021/01/26 05:23:27;;;;;;;11.05;4.80;;;0.40;97.50;;;;;;5091279;28;20032;-62
2021/01/26 05:25:54;;;;;;;8.77;4.20;;;0.40;97.90;;;;;;5091950;28;20028;-62
2021/01/26 05:28:20;;;;;;;6.22;3.88;;;0.40;98.30;;;;;;5091082;28;20020;-62
2021/01/26 05:31:05;;;;;;;8.82;4.32;;;0.40;97.70;;;;;;5091896;28;20042;-61
2021/01/26 05:33:31;;;;;;;8.25;4.28;;;0.40;98.00;;;;;;5091085;28;20048;-61
2021/01/26 05:36:00;;;;;;;12.98;4.95;;;0.40;97.70;;;;;;5091068;28;20387;-62
2021/01/26 05:38:25;;;;;;;8.23;4.32;;;0.40;98.10;;;;;;5089870;28;20028;-62
2021/01/26 05:40:58;;;;;;;7.60;3.63;;;0.40;97.80;;;;;;5089914;28;20140;-63
2021/01/26 05:43:28;;;;;;;11.48;4.32;;;0.50;97.20;;;;;;5087352;28;20031;-62
2021/01/26 05:45:57;;;;;;;7.65;4.25;;;0.50;97.60;;;;;;5090128;28;20485;-63
2021/01/26 05:48:24;;;;;;;8.02;4.40;;;0.50;96.40;;;;;;5089595;28;20054;-66
2021/01/26 05:50:52;;;;;;;9.35;3.95;;;0.50;97.40;;;;;;5088852;28;20028;-61
2021/01/26 05:53:29;;;;;;;9.85;4.63;;;0.50;96.80;;;;;;5089219;28;20381;-63
2021/01/26 05:56:11;;;;;;;13.57;4.50;;;0.50;97.30;;;;;;5090700;28;20043;-61
2021/01/26 05:58:39;;;;;;;8.57;3.90;;;0.50;97.50;;;;;;5082350;28;20024;-61
2021/01/26 06:01:24;;;;;;;9.35;3.90;;;0.50;96.90;;;;;;5090113;28;20036;-61
2021/01/26 06:04:15;;;;;;;10.40;4.57;;;0.50;96.10;;;;;;5091281;28;20028;-61
2021/01/26 06:06:51;;;;;;;9.23;3.85;;;0.50;97.20;;;;;;5090630;28;20024;-61
2021/01/26 06:09:38;;;;;;;8.57;4.00;;;0.50;96.50;;;;;;5091137;28;20028;-64
2021/01/26 06:12:27;;;;;;;8.75;3.95;;;0.50;96.70;;;;;;5090979;28;20540;-62
2021/01/26 06:14:57;;;;;;;8.05;3.95;;;0.50;96.80;;;;;;5089709;28;20042;-62
2021/01/26 06:17:23;;;;;;;8.10;3.55;;;0.60;97.10;;;;;;5089232;28;20020;-62
2021/01/26 06:20:06;;;;;;;7.28;4.20;;;0.60;96.80;;;;;;5090993;28;20082;-62
2021/01/26 06:22:32;;;;;;;9.23;3.40;;;0.60;96.30;;;;;;5084165;28;20028;-63
2021/01/26 06:25:02;;;;;;;6.55;3.05;;;0.60;96.90;;;;;;5090882;28;20119;-63
2021/01/26 06:27:30;;;;;;;5.68;2.80;;;0.60;96.70;;;;;;5090135;28;20050;-61
2021/01/26 06:29:56;;;;;;;5.53;3.08;;;0.60;96.10;;;;;;5090848;28;20034;-62
2021/01/26 06:32:45;;;;;;;8.75;3.70;;;0.60;96.40;;;;;;5089814;28;20028;-62
2021/01/26 06:35:32;;;;;;;3.72;2.88;;;0.70;96.60;;;;;;5090761;28;20040;-61
2021/01/26 06:38:21;;;;;;;8.65;3.10;;;0.60;97.10;;;;;;5088842;28;20499;-62
2021/01/26 06:41:01;;;;;;;7.13;3.58;;;0.70;96.20;;;;;;5090848;28;20761;-62
2021/01/26 06:43:54;;;;;;;6.65;3.67;;;0.70;96.60;;;;;;5090015;28;20119;-62
2021/01/26 06:46:23;;;;;;;8.20;3.33;;;0.70;97.90;;;;;;5090615;28;20055;-63
2021/01/26 06:48:57;;;;;;;6.45;2.65;;;0.70;97.40;;;;;;5090746;28;20495;-61
2021/01/26 06:51:41;;;;;;;5.85;2.85;;;0.70;98.70;;;;;;5089590;28;20024;-62
2021/01/26 06:54:38;;;;;;;9.35;3.63;;;0.70;99.10;;;;;;5088035;28;20082;-61
2021/01/26 06:57:27;;;;;;;7.90;3.05;;;0.70;99.60;;;;;;5087335;28;20032;-63
2021/01/26 07:00:17;;;;;;;12.02;3.90;;;0.70;99.90;;;;;;5090472;28;20024;-62
2021/01/26 07:03:33;;;;;;;8.35;3.47;;;0.70;99.90;;;;;;5082447;28;20028;-62
2021/01/26 07:06:13;;;;;;;11.07;2.80;;;0.70;99.90;;;;;;5060673;28;20040;-61
2021/01/26 07:08:59;;;;;;;7.63;2.97;;;0.60;99.90;;;;;;5087316;28;20031;-61
2021/01/26 07:11:30;;;;;;;5.25;2.92;;;0.70;99.90;;;;;;5087556;28;20465;-62
2021/01/26 07:14:13;;;;;;;12.93;3.45;;;0.70;99.90;;;;;;5089042;28;20031;-61
2021/01/26 07:16:59;;;;;;;7.85;3.17;;;0.70;99.90;;;;;;5086702;28;20020;-61
2021/01/26 07:19:31;;;;;;;9.77;2.80;;;0.70;99.90;;;;;;5087869;28;20077;-62
2021/01/26 07:22:08;;;;;;;6.13;2.83;;;0.70;99.90;;;;;;5089512;28;20043;-61
2021/01/26 07:24:50;;;;;;;9.82;2.78;;;0.70;99.90;;;;;;5089285;28;20162;-61
2021/01/26 07:27:19;;;;;;;7.15;2.63;;;0.70;99.80;;;;;;5089409;28;20062;-62
2021/01/26 07:29:45;;;;;;;7.30;3.13;;;0.70;99.90;;;;;;5088164;28;20028;-62
2021/01/26 07:32:22;;;;;;;9.65;3.30;;;0.70;99.90;;;;;;5090223;28;20046;-62
2021/01/26 07:34:48;;;;;;;7.07;2.85;;;0.70;99.90;;;;;;5091138;28;20043;-62
2021/01/26 07:37:39;;;;;;;5.82;3.25;;;0.60;99.90;;;;;;5092144;28;20047;-62
2021/01/26 07:40:11;;;;;;;7.75;2.45;;;0.60;99.90;;;;;;5091755;28;20404;-61
2021/01/26 07:42:54;;;;;;;7.82;2.60;;;0.60;99.90;;;;;;5091306;28;20208;-61
2021/01/26 07:45:45;;;;;;;7.53;2.88;;;0.60;99.90;;;;;;5092033;28;20024;-63
2021/01/26 07:48:18;;;;;;;7.80;2.92;;;0.60;99.90;;;;;;5093246;28;20017;-61
2021/01/26 07:50:48;;;;;;;8.27;3.63;;;0.60;99.90;;;;;;5091725;28;20198;-61
2021/01/26 07:53:49;;;;;;;6.13;2.53;;;0.60;99.90;;;;;;5093354;28;20028;-61
2021/01/26 07:56:31;;;;;;;5.82;3.10;;;0.70;99.90;;;;;;5060653;28;20063;-61
2021/01/26 07:58:57;;;;;;;10.18;2.88;;;0.70;99.90;;;;;;5093158;28;20451;-61
2021/01/26 08:01:25;;;;;;;7.85;3.03;;;0.70;99.90;;;;;;5093153;28;20103;-64
2021/01/26 08:03:52;;;;;;;12.43;2.67;;;0.70;99.90;;;;;;5093181;28;20028;-62
2021/01/26 08:06:36;;;;;;;6.13;2.92;;;0.80;99.90;;;;;;5085227;28;20031;-61
2021/01/26 08:09:05;;;;;;;11.65;3.17;;;0.90;99.90;;;;;;5092740;28;20375;-61
2021/01/26 08:11:32;;;;;;;8.25;2.38;;;0.90;99.90;;;;;;5091426;28;20020;-61
2021/01/26 08:14:03;;;;;;;7.22;2.33;;;1.00;99.90;;;;;;5082085;28;20036;-63
2021/01/26 08:16:33;;;;;;;9.13;2.92;;;1.10;99.90;;;;;;5072549;28;20024;-61
2021/01/26 08:19:00;;;;;;;6.72;2.45;;;1.10;99.50;;;;;;5090751;28;20533;-61
2021/01/26 08:21:37;;;;;;;8.02;2.45;;;1.30;98.70;;;;;;5092317;28;20036;-64
2021/01/26 08:24:21;;;;;;;8.43;2.45;;;1.30;97.40;;;;;;5092861;28;20038;-63
2021/01/26 08:26:50;;;;;;;5.80;2.30;;;1.40;96.30;;;;;;5092261;28;20036;-64
2021/01/26 08:29:38;;;;;;;7.18;2.50;;;1.40;95.80;;;;;;5092420;28;20024;-63
2021/01/26 08:32:22;;;;;;;5.85;2.90;;;1.50;95.30;;;;;;5091349;28;20028;-63
2021/01/26 08:34:59;;;;;;;7.32;2.65;;;1.40;96.30;;;;;;5090457;28;20039;-62
2021/01/26 08:37:50;;;;;;;11.10;2.72;;;1.50;95.30;;;;;;5089940;28;20153;-63
2021/01/26 08:40:16;;;;;;;11.43;4.05;;;1.50;95.20;;;;;;5091734;28;20032;-65
2021/01/26 08:42:41;;;;;;;10.43;3.13;;;1.60;94.20;;;;;;5091292;28;20032;-62
2021/01/26 08:45:24;;;;;;;8.90;3.67;;;1.60;94.90;;;;;;5089471;28;20486;-62
2021/01/26 08:48:00;;;;;;;10.80;3.92;;;1.60;95.90;;;;;;5091792;28;20802;-62
2021/01/26 08:50:28;;;;;;;6.95;3.63;;;1.60;94.30;;;;;;5087909;28;20145;-64
2021/01/26 08:53:34;;;;;;;10.98;3.85;;;1.60;94.80;;;;;;5090262;28;20036;-63
2021/01/26 08:56:25;;;;;;;12.60;4.95;;;1.50;94.30;;;;;;5091392;28;20036;-62
2021/01/26 08:58:53;;;;;;;9.82;4.18;;;1.60;94.90;;;;;;5090703;28;20031;-64
2021/01/26 09:01:22;;;;;;;8.15;3.97;;;1.50;95.60;;;;;;5085149;28;20032;-63
2021/01/26 09:04:08;;;;;;;12.20;4.38;;;1.50;95.70;;;;;;5088547;28;20050;-64
2021/01/26 09:06:43;;;;;;;7.25;3.90;;;1.50;96.30;;;;;;5090270;28;20043;-62
2021/01/26 09:09:23;;;;;;;11.35;3.80;;;1.50;95.90;;;;;;5090326;28;20032;-62
2021/01/26 09:11:54;;;;;;;11.82;3.50;;;1.60;94.70;;;;;;5090068;28;20048;-62
2021/01/26 09:14:47;;;;;;;8.80;4.07;;;1.50;94.30;;;;;;5091328;28;20036;-63
2021/01/26 09:17:28;;;;;;;7.88;3.15;;;1.60;94.90;;;;;;5090555;28;21150;-63
2021/01/26 09:19:55;;;;;;;4.75;3.17;;;1.50;94.40;;;;;;5091294;28;20036;-64
2021/01/26 09:22:28;;;;;;;7.68;3.78;;;1.50;93.60;;;;;;5091640;28;20028;-63
2021/01/26 09:25:03;;;;;;;7.28;3.38;;;1.50;93.20;;;;;;5091092;28;20077;-63
2021/01/26 09:27:34;;;;;;;6.55;3.70;;;1.50;93.70;;;;;;5090913;28;20020;-62
2021/01/26 09:30:10;;;;;;;5.00;3.22;;;1.50;93.70;;;;;;5089084;28;20385;-63
2021/01/26 09:32:41;;;;;;;6.68;3.08;;;1.60;93.20;;;;;;5089886;28;20059;-63
2021/01/26 09:35:08;;;;;;;5.47;3.30;;;1.70;92.00;;;;;;5090173;28;20465;-62
2021/01/26 09:37:34;;;;;;;7.85;3.15;;;1.70;91.70;;;;;;5090414;28;20036;-62
2021/01/26 09:40:12;;;;;;;5.95;2.97;;;1.80;91.80;;;;;;5090886;28;20053;-63
2021/01/26 09:42:38;;;;;;;5.03;2.75;;;1.90;89.90;;;;;;5090448;28;20051;-62
2021/01/26 09:45:08;;;;;;;6.07;2.60;;;2.10;88.90;;;;;;5090282;28;20036;-63
2021/01/26 09:47:34;;;;;;;8.73;4.07;;;2.30;88.90;;;;;;5089521;28;20020;-62
2021/01/26 09:50:07;;;;;;;6.72;2.38;;;2.40;86.30;;;;;;5089664;28;20032;-63
2021/01/26 09:52:33;;;;;;;3.85;2.08;;;2.50;84.80;;;;;;5090308;28;20024;-63
2021/01/26 09:55:18;;;;;;;6.82;2.40;;;2.60;84.40;;;;;;5090467;28;20377;-64
2021/01/26 09:57:45;;;;;;;5.20;2.20;;;2.50;83.50;;;;;;5089218;28;20020;-63
2021/01/26 10:00:16;;;;;;;6.93;2.78;;;2.50;84.20;;;;;;5089225;28;20026;-63
2021/01/26 10:02:43;;;;;;;5.50;2.42;;;2.40;85.20;;;;;;5082863;28;20075;-64
2021/01/26 10:05:11;;;;;;;6.63;2.75;;;2.40;86.00;;;;;;5090825;28;20056;-62
2021/01/26 10:07:37;;;;;;;3.33;1.92;;;2.30;86.30;;;;;;5088013;28;20023;-64
2021/01/26 10:10:21;;;;;;;8.80;2.20;;;2.30;86.60;;;;;;5088826;28;20023;-68
2021/01/26 10:12:47;;;;;;;11.80;2.25;;;2.30;84.60;;;;;;5089183;28;20028;-69
2021/01/26 10:15:30;;;;;;;5.65;1.80;;;2.40;83.60;;;;;;5090062;28;20477;-69
2021/01/26 10:17:58;;;;;;;6.68;2.25;;;2.50;82.70;;;;;;5089535;28;20055;-69
2021/01/26 10:20:28;;;;;;;4.13;1.98;;;2.60;82.40;;;;;;5089478;28;20032;-63
2021/01/26 10:23:29;;;;;;;5.07;1.67;;;2.70;81.20;;;;;;5089199;28;20024;-65
2021/01/26 10:26:08;;;;;;;4.75;1.90;;;2.80;80.80;;;;;;5088626;28;20402;-66
2021/01/26 10:28:35;;;;;;;5.03;1.88;;;3.00;78.60;;;;;;5086869;28;20380;-65
2021/01/26 10:31:01;;;;;;;9.10;2.10;;;3.10;79.20;;;;;;5088601;28;20024;-66
2021/01/26 10:33:29;;;;;;;3.13;1.65;;;3.30;78.80;;;;;;5088830;28;20055;-70
2021/01/26 10:35:55;;;;;;;7.00;2.10;;;3.40;76.00;;;;;;5088984;28;20050;-69
2021/01/26 10:38:30;;;;;;;8.80;2.65;;;3.40;77.20;;;;;;5088207;28;20036;-68
2021/01/26 10:41:12;;;;;;;8.80;2.72;;;3.30;76.10;;;;;;5088695;28;20020;-68
2021/01/26 10:43:39;;;;;;;3.22;1.80;;;3.30;76.00;;;;;;5088472;28;20052;-68
2021/01/26 10:46:12;;;;;;;7.53;2.70;;;3.20;76.80;;;;;;5089680;28;20028;-68
2021/01/26 10:48:43;;;;;;;5.85;1.90;;;3.20;76.70;;;;;;5088642;28;20524;-67
2021/01/26 10:51:35;;;;;;;;;;;3.00;76.30;;;;;;5088316;28;20100;-66
2021/01/26 10:54:00;;;;;;;3.15;1.40;;;3.00;76.50;;;;;;5086158;28;19908;-65
2021/01/26 10:56:26;;;;;;;5.45;1.80;;;2.90;77.50;;;;;;5089395;28;20024;-67
2021/01/26 10:58:54;;;;;;;7.53;2.03;;;2.80;76.80;;;;;;5088933;28;20024;-62
2021/01/26 11:01:22;;;;;;;13.43;4.22;;;2.70;77.10;;;;;;5085883;28;20058;-63
2021/01/26 11:03:48;;;;;;;4.85;1.77;;;2.60;78.90;;;;;;5088368;28;20032;-63
2021/01/26 11:06:14;;;;;;;2.50;1.52;;;2.60;78.00;;;;;;5089157;28;20036;-63
2021/01/26 11:08:41;;;;;;;5.47;1.70;;;2.60;78.70;;;;;;5088359;28;20031;-68
2021/01/26 11:11:10;;;;;;;9.20;2.90;;;2.60;78.70;;;;;;5093715;28;20039;-62
2021/01/26 11:13:36;;;;;;;8.65;3.13;;;2.60;79.30;;;;;;5093004;28;20393;-62
2021/01/26 11:16:01;;;;;;;7.45;2.00;;;2.60;80.00;;;;;;5092319;28;20043;-61
2021/01/26 11:18:27;;;;;;;3.80;1.90;;;2.60;78.60;;;;;;5092653;28;20039;-62
2021/01/26 11:20:52;;;;;;;7.25;1.48;;;2.60;79.60;;;;;;5091927;28;20167;-62
2021/01/26 11:23:18;;;;;;;6.20;2.15;;;2.60;79.00;;;;;;5092634;28;20031;-63
2021/01/26 11:25:44;;;;;;;4.32;2.05;;;2.50;79.20;;;;;;5091825;28;20032;-62
2021/01/26 11:28:09;;;;;;;5.70;1.95;;;2.60;78.70;;;;;;5091510;28;20016;-61
2021/01/26 11:30:35;;;;;;;4.65;1.60;;;2.60;77.90;;;;;;5091541;28;20039;-61
2021/01/26 11:33:04;;;;;;;3.65;1.80;;;2.60;79.30;;;;;;5087691;28;20055;-60
2021/01/26 11:35:30;;;;;;;5.95;1.77;;;2.80;77.40;;;;;;5091826;28;20115;-61
2021/01/26 11:37:56;;;;;;;7.53;1.63;;;3.00;75.80;;;;;;5091862;28;20074;-62
2021/01/26 11:40:23;;;;;;;5.07;1.65;;;3.10;74.60;;;;;;5092504;28;20107;-61
2021/01/26 11:42:48;;;;;;;4.95;1.80;;;3.20;73.90;;;;;;5091589;28;20111;-67
2021/01/26 11:45:22;;;;;;;7.40;1.75;;;3.30;73.40;;;;;;5074340;28;20127;-69
2021/01/26 11:47:48;;;;;;;4.85;1.63;;;3.40;72.80;;;;;;5092057;28;20028;-68
2021/01/26 11:50:15;;;;;;;2.90;1.67;;;3.40;71.90;;;;;;5091084;28;20024;-68
2021/01/26 11:52:41;;;;;;;7.13;1.60;;;3.50;71.60;;;;;;5090921;28;20027;-68
2021/01/26 11:55:11;;;;;;;4.93;1.58;;;3.50;70.60;;;;;;5091793;28;20481;-68
2021/01/26 11:57:37;;;;;;;7.95;1.88;;;3.50;70.10;;;;;;5091936;28;20070;-70
2021/01/26 12:00:06;;;;;;;7.32;1.67;;;3.60;70.40;;;;;;5090341;28;20024;-68
2021/01/26 12:02:32;;;;;;;5.55;1.70;;;3.60;70.00;;;;;;5090418;28;20059;-66
2021/01/26 12:04:58;;;;;;;5.65;1.83;;;3.60;69.60;;;;;;5091402;28;20472;-65
2021/01/26 12:07:23;;;;;;;4.55;1.88;;;3.60;70.80;;;;;;5093003;28;20024;-65
2021/01/26 12:09:49;;;;;;;11.50;1.90;;;3.60;69.90;;;;;;5091286;28;20469;-65
2021/01/26 12:12:15;;;;;;;4.82;2.13;;;3.70;69.10;;;;;;5092817;28;20028;-62
2021/01/26 12:14:40;;;;;;;5.38;1.90;;;3.90;68.90;;;;;;5091851;28;20411;-62
2021/01/26 12:17:06;;;;;;;6.22;1.90;;;4.00;68.90;;;;;;5090094;28;20027;-62
2021/01/26 12:19:32;;;;;;;5.55;1.88;;;4.00;68.50;;;;;;5091186;28;20493;-61
2021/01/26 12:21:57;;;;;;;6.32;1.95;;;4.00;68.40;;;;;;5090815;28;20028;-62
2021/01/26 12:24:23;;;;;;;7.05;2.20;;;4.10;68.70;;;;;;5092650;28;20039;-64
2021/01/26 12:26:49;;;;;;;8.10;2.13;;;4.10;67.60;;;;;;5091701;28;20196;-62
2021/01/26 12:29:14;;;;;;;7.03;2.28;;;4.10;68.20;;;;;;5092283;28;20032;-61
2021/01/26 12:31:40;;;;;;;6.78;2.08;;;4.10;68.10;;;;;;5091379;28;20035;-61
2021/01/26 12:34:06;;;;;;;6.97;2.00;;;4.10;67.10;;;;;;5091140;28;20056;-62
2021/01/26 12:36:31;;;;;;;4.15;1.98;;;4.00;67.70;;;;;;5091546;28;20051;-62
2021/01/26 12:38:57;;;;;;;6.13;1.98;;;3.90;68.50;;;;;;5090078;28;20024;-64
2021/01/26 12:41:23;;;;;;;7.38;2.00;;;3.80;68.80;;;;;;5091692;28;20101;-62
2021/01/26 12:43:48;;;;;;;5.05;2.00;;;3.80;68.50;;;;;;5091469;28;20032;-63
2021/01/26 12:46:14;;;;;;;5.30;2.13;;;3.80;68.40;;;;;;5092229;28;20465;-62
2021/01/26 12:48:40;;;;;;;6.20;2.28;;;3.70;68.70;;;;;;5091780;28;20086;-67
2021/01/26 12:51:05;;;;;;;3.20;1.85;;;3.70;69.30;;;;;;5090433;28;20789;-63
2021/01/26 12:53:31;;;;;;;4.07;1.70;;;3.70;69.50;;;;;;5092121;28;20376;-62
2021/01/26 12:55:57;;;;;;;6.80;1.92;;;3.80;69.80;;;;;;5091029;28;20127;-62
2021/01/26 12:58:22;;;;;;;4.43;1.80;;;3.90;69.10;;;;;;5091433;28;20097;-62
2021/01/26 13:00:48;;;;;;;10.07;2.03;;;3.90;69.30;;;;;;5091303;28;20035;-65
2021/01/26 13:03:14;;;;;;;5.45;1.88;;;4.00;68.50;;;;;;5091191;28;20035;-61
2021/01/26 13:05:40;;;;;;;5.57;1.98;;;3.90;69.10;;;;;;5092032;28;20067;-62
2021/01/26 13:08:05;;;;;;;10.98;2.33;;;3.90;69.40;;;;;;5091534;28;20023;-64
2021/01/26 13:10:32;;;;;;;8.52;1.85;;;3.90;69.50;;;;;;5092197;28;20113;-64
2021/01/26 13:12:58;;;;;;;5.97;1.73;;;4.00;69.20;;;;;;5090304;28;20032;-64
2021/01/26 13:15:24;;;;;;;4.43;2.08;;;4.00;69.30;;;;;;5091591;28;20519;-62
2021/01/26 13:17:52;;;;;;;7.57;2.25;;;4.10;69.40;;;;;;5082389;28;20117;-63